createdAt,value
2019-03-29T00:00:41.480Z,30.02
2019-03-29T00:03:11.014Z,32.83
2019-03-29T00:05:40.377Z,32.07
2019-03-29T00:08:09.742Z,30.83
2019-03-29T00:10:39.124Z,31.33
2019-03-29T00:13:08.508Z,30.57
2019-03-29T00:15:37.891Z,31.27
2019-03-29T00:18:07.463Z,30.37
2019-03-29T00:20:37.490Z,30.72
2019-03-29T00:23:06.851Z,30.40
2019-03-29T00:25:36.227Z,32.10
2019-03-29T00:28:05.663Z,32.27
2019-03-29T00:30:35.048Z,32.60
2019-03-29T00:33:04.413Z,31.83
2019-03-29T00:35:34.151Z,33.73
2019-03-29T00:38:03.748Z,35.77
2019-03-29T00:40:33.207Z,33.70
2019-03-29T00:43:02.615Z,33.50
2019-03-29T00:45:31.995Z,32.43
2019-03-29T00:48:01.355Z,34.57
2019-03-29T00:50:30.733Z,32.67
2019-03-29T00:53:00.352Z,33.73
2019-03-29T00:55:29.745Z,33.33
2019-03-29T00:57:59.120Z,34.95
2019-03-29T01:00:31.360Z,33.08
2019-03-29T01:02:59.600Z,34.47
2019-03-29T01:05:28.975Z,33.50
2019-03-29T01:08:07.677Z,34.98
2019-03-29T01:10:29.472Z,32.07
2019-03-29T01:12:59.013Z,34.40
2019-03-29T01:15:28.422Z,34.07
2019-03-29T01:17:57.804Z,32.97
2019-03-29T01:20:27.350Z,33.60
2019-03-29T01:22:57.294Z,33.30
2019-03-29T01:25:27.280Z,34.32
2019-03-29T01:27:56.906Z,33.55
2019-03-29T01:30:26.578Z,34.30
2019-03-29T01:32:56.578Z,34.30
2019-03-29T01:35:26.603Z,34.10
2019-03-29T01:37:56.728Z,32.58
2019-03-29T01:40:26.725Z,33.28
2019-03-29T01:42:56.101Z,34.20
2019-03-29T01:45:25.769Z,31.90
2019-03-29T01:47:55.980Z,33.37
2019-03-29T01:50:25.470Z,32.05
2019-03-29T01:52:54.833Z,29.40
2019-03-29T01:55:24.207Z,30.90
2019-03-29T01:57:53.583Z,32.90
2019-03-29T02:00:34.406Z,32.40
2019-03-29T02:03:03.990Z,31.67
2019-03-29T02:05:33.359Z,33.03
2019-03-29T02:08:02.744Z,33.87
2019-03-29T02:10:32.115Z,33.70
2019-03-29T02:13:01.720Z,32.03
2019-03-29T02:15:31.316Z,31.27
2019-03-29T02:18:01.483Z,31.80
2019-03-29T02:20:31.617Z,33.38
2019-03-29T02:23:01.501Z,33.13
2019-03-29T02:25:31.548Z,34.33
2019-03-29T02:28:00.923Z,34.80
2019-03-29T02:30:32.066Z,36.13
2019-03-29T02:33:02.447Z,34.20
2019-03-29T02:35:32.404Z,35.85
2019-03-29T02:38:01.798Z,37.73
2019-03-29T02:40:31.158Z,36.83
2019-03-29T02:43:00.541Z,35.05
2019-03-29T02:45:30.781Z,37.33
2019-03-29T02:48:00.758Z,35.00
2019-03-29T02:50:30.108Z,35.50
2019-03-29T02:52:59.796Z,37.13
2019-03-29T02:55:29.178Z,37.83
2019-03-29T02:57:58.902Z,37.37
2019-03-29T03:00:28.265Z,37.27
2019-03-29T03:02:57.645Z,36.27
2019-03-29T03:05:27.020Z,38.53
2019-03-29T03:07:56.387Z,37.20
2019-03-29T03:10:25.764Z,35.25
2019-03-29T03:12:55.418Z,37.30
2019-03-29T03:15:24.789Z,37.47
2019-03-29T03:17:54.424Z,38.10
2019-03-29T03:20:23.803Z,35.10
2019-03-29T03:22:53.387Z,36.70
2019-03-29T03:25:22.712Z,38.97
2019-03-29T03:27:52.078Z,37.83
2019-03-29T03:30:21.809Z,36.87
2019-03-29T03:32:51.141Z,37.65
2019-03-29T03:35:20.531Z,35.07
2019-03-29T03:37:49.881Z,36.17
2019-03-29T03:40:19.694Z,35.90
2019-03-29T03:42:49.067Z,35.90
2019-03-29T03:45:18.602Z,35.30
2019-03-29T03:47:47.881Z,31.33
2019-03-29T03:50:38.931Z,31.17
2019-03-29T03:53:09.241Z,31.93
2019-03-29T03:55:40.308Z,34.38
2019-03-29T03:58:11.786Z,32.38
2019-03-29T04:00:55.111Z,33.17
2019-03-29T04:03:25.342Z,31.37
2019-03-29T04:05:55.363Z,34.17
2019-03-29T04:08:24.997Z,33.83
2019-03-29T04:10:54.369Z,31.93
2019-03-29T04:13:23.741Z,33.10
2019-03-29T04:15:53.121Z,32.13
2019-03-29T04:18:22.487Z,34.33
2019-03-29T04:20:51.860Z,36.33
2019-03-29T04:23:21.569Z,35.33
2019-03-29T04:25:51.255Z,33.95
2019-03-29T04:28:39.938Z,34.97
2019-03-29T04:31:09.349Z,36.63
2019-03-29T04:33:38.721Z,31.53
2019-03-29T04:36:08.101Z,33.70
2019-03-29T04:38:37.467Z,36.30
2019-03-29T04:41:06.856Z,34.03
2019-03-29T04:43:36.230Z,36.13
2019-03-29T04:46:05.674Z,37.47
2019-03-29T04:48:35.045Z,35.83
2019-03-29T04:51:04.754Z,36.50
2019-03-29T04:53:34.115Z,35.47
2019-03-29T04:56:03.738Z,33.28
2019-03-29T04:58:33.104Z,35.27
2019-03-29T05:01:02.480Z,35.13
2019-03-29T05:03:32.082Z,35.93
2019-03-29T05:06:01.500Z,36.83
2019-03-29T05:08:30.843Z,35.07
2019-03-29T05:11:00.479Z,33.78
2019-03-29T05:13:29.875Z,33.57
2019-03-29T05:15:59.243Z,34.07
2019-03-29T05:18:28.623Z,34.67
2019-03-29T05:20:58.508Z,35.80
2019-03-29T05:23:28.028Z,33.60
2019-03-29T05:25:57.395Z,33.80
2019-03-29T05:28:26.779Z,32.48
2019-03-29T05:30:56.393Z,34.10
2019-03-29T05:33:25.774Z,36.07
2019-03-29T05:35:55.182Z,34.63
2019-03-29T05:38:24.520Z,33.57
2019-03-29T05:40:54.191Z,33.27
2019-03-29T05:43:23.639Z,34.75
2019-03-29T05:45:53.275Z,33.80
2019-03-29T05:48:22.665Z,32.75
2019-03-29T05:50:52.038Z,30.60
2019-03-29T05:53:23.156Z,30.17
2019-03-29T05:55:52.622Z,30.50
2019-03-29T05:58:22.055Z,30.73
2019-03-29T06:00:51.429Z,30.67
2019-03-29T06:03:20.809Z,30.43
2019-03-29T06:05:50.518Z,31.17
2019-03-29T06:08:19.898Z,30.90
2019-03-29T06:10:49.846Z,30.97
2019-03-29T06:13:19.334Z,31.00
2019-03-29T06:15:48.713Z,30.10
2019-03-29T06:18:18.090Z,29.97
2019-03-29T06:20:47.502Z,31.33
2019-03-29T06:23:17.395Z,30.72
2019-03-29T06:25:46.754Z,29.15
2019-03-29T06:28:16.264Z,29.35
2019-03-29T06:30:47.706Z,28.60
2019-03-29T06:33:17.172Z,28.80
2019-03-29T06:35:50.714Z,29.10
2019-03-29T06:38:23.980Z,30.23
2019-03-29T06:41:02.638Z,28.00
2019-03-29T06:43:24.484Z,26.80
2019-03-29T06:45:53.870Z,26.77
2019-03-29T06:48:23.252Z,26.07
2019-03-29T06:50:53.504Z,26.62
2019-03-29T06:53:28.970Z,27.10
2019-03-29T06:55:59.440Z,26.40
2019-03-29T06:58:28.871Z,26.03
2019-03-29T07:00:58.252Z,25.73
2019-03-29T07:03:27.645Z,25.48
2019-03-29T07:05:57.027Z,23.47
2019-03-29T07:08:26.412Z,24.70
2019-03-29T07:10:55.804Z,23.37
2019-03-29T07:13:25.212Z,23.57
2019-03-29T07:15:54.606Z,23.37
2019-03-29T07:18:23.983Z,22.83
2019-03-29T07:20:53.383Z,22.70
2019-03-29T07:23:23.451Z,21.10
2019-03-29T07:25:56.112Z,21.10
2019-03-29T07:28:24.230Z,21.40
2019-03-29T07:30:53.617Z,20.40
2019-03-29T07:33:22.989Z,21.97
2019-03-29T07:35:52.381Z,23.70
2019-03-29T07:38:21.757Z,21.43
2019-03-29T07:40:51.147Z,22.77
2019-03-29T07:43:23.899Z,22.30
2019-03-29T07:45:51.744Z,22.57
2019-03-29T07:48:21.388Z,23.05
2019-03-29T07:50:50.806Z,22.97
2019-03-29T07:53:20.179Z,23.13
2019-03-29T07:55:49.568Z,22.80
2019-03-29T07:58:18.949Z,23.43
2019-03-29T08:00:48.607Z,22.20
2019-03-29T08:03:21.044Z,22.37
2019-03-29T08:05:49.130Z,22.00
2019-03-29T08:08:24.836Z,24.27
2019-03-29T08:10:53.186Z,24.27
2019-03-29T08:13:20.745Z,22.42
2019-03-29T08:15:50.147Z,22.50
2019-03-29T08:18:19.522Z,22.67
2019-03-29T08:20:49.240Z,22.42
2019-03-29T08:23:18.613Z,22.35
2019-03-29T08:25:48.020Z,21.20
2019-03-29T08:28:17.396Z,20.37
2019-03-29T08:30:46.783Z,20.97
2019-03-29T08:33:16.164Z,19.83
2019-03-29T08:35:45.559Z,19.17
2019-03-29T08:38:15.362Z,17.87
2019-03-29T08:40:45.373Z,18.80
2019-03-29T08:43:14.872Z,18.57
2019-03-29T08:45:44.265Z,19.33
2019-03-29T08:48:13.650Z,17.92
2019-03-29T08:50:43.143Z,19.35
2019-03-29T08:53:12.527Z,18.25
2019-03-29T08:55:45.947Z,18.75
2019-03-29T08:58:13.709Z,18.07
2019-03-29T09:00:43.103Z,18.17
2019-03-29T09:03:12.472Z,18.57
2019-03-29T09:05:42.504Z,18.92
2019-03-29T09:08:11.866Z,18.83
2019-03-29T09:10:41.257Z,18.60
2019-03-29T09:13:10.643Z,17.90
2019-03-29T09:15:40.025Z,17.77
2019-03-29T09:18:09.485Z,17.20
2019-03-29T09:20:38.868Z,17.80
2019-03-29T09:23:10.498Z,16.40
2019-03-29T09:25:40.626Z,16.63
2019-03-29T09:28:10.117Z,17.20
2019-03-29T09:30:39.498Z,17.37
2019-03-29T09:33:09.281Z,15.72
2019-03-29T09:35:38.643Z,16.30
2019-03-29T09:38:08.026Z,16.37
2019-03-29T09:40:37.415Z,15.53
2019-03-29T09:43:08.224Z,15.83
2019-03-29T09:45:41.168Z,14.80
2019-03-29T09:48:09.002Z,16.95
2019-03-29T09:50:38.388Z,16.35
2019-03-29T09:53:08.062Z,15.98
2019-03-29T09:55:37.445Z,15.35
2019-03-29T09:58:06.833Z,15.60
2019-03-29T10:00:36.576Z,15.55
2019-03-29T10:03:05.966Z,15.80
2019-03-29T10:05:35.339Z,15.77
2019-03-29T10:08:04.724Z,16.50
2019-03-29T10:10:34.613Z,16.20
2019-03-29T10:13:04.279Z,15.48
2019-03-29T10:15:33.898Z,16.20
2019-03-29T10:18:03.288Z,16.45
2019-03-29T10:20:32.915Z,15.53
2019-03-29T10:23:03.124Z,14.97
2019-03-29T10:25:32.508Z,15.87
2019-03-29T10:28:01.896Z,14.30
2019-03-29T10:30:39.701Z,15.48
2019-03-29T10:33:09.161Z,14.80
2019-03-29T10:35:50.882Z,14.33
2019-03-29T10:38:10.805Z,14.90
2019-03-29T10:40:40.250Z,14.10
2019-03-29T10:43:28.978Z,13.73
2019-03-29T10:45:58.608Z,14.07
2019-03-29T10:48:28.229Z,14.23
2019-03-29T10:50:57.617Z,14.07
2019-03-29T10:53:28.724Z,14.57
2019-03-29T10:55:58.132Z,13.95
2019-03-29T10:58:27.492Z,13.83
2019-03-29T11:00:56.885Z,13.15
2019-03-29T11:03:28.663Z,13.45
2019-03-29T11:05:57.866Z,13.80
2019-03-29T11:08:27.525Z,14.00
2019-03-29T11:10:56.895Z,11.77
2019-03-29T11:13:26.310Z,12.07
2019-03-29T11:15:55.994Z,13.27
2019-03-29T11:18:25.381Z,12.55
2019-03-29T11:20:54.768Z,12.80
2019-03-29T11:23:24.150Z,11.90
2019-03-29T11:25:53.535Z,11.13
2019-03-29T11:28:22.990Z,11.67
2019-03-29T11:30:52.361Z,12.20
2019-03-29T11:33:21.750Z,11.17
2019-03-29T11:35:51.130Z,11.37
2019-03-29T11:38:20.594Z,11.90
2019-03-29T11:40:49.982Z,10.47
2019-03-29T11:43:26.471Z,9.13
2019-03-29T11:45:50.466Z,10.23
2019-03-29T11:48:19.849Z,9.63
2019-03-29T11:50:49.217Z,9.00
2019-03-29T11:53:18.603Z,8.55
2019-03-29T11:55:48.273Z,9.00
2019-03-29T11:58:17.639Z,7.83
2019-03-29T12:00:47.013Z,8.87
2019-03-29T12:03:16.543Z,9.13
2019-03-29T12:05:46.181Z,9.53
2019-03-29T12:08:15.625Z,8.38
2019-03-29T12:10:45.248Z,9.53
2019-03-29T12:13:14.624Z,9.20
2019-03-29T12:15:44.074Z,9.33
2019-03-29T12:18:13.446Z,9.13
2019-03-29T12:21:02.164Z,9.38
2019-03-29T12:23:31.537Z,9.40
2019-03-29T12:26:00.933Z,8.23
2019-03-29T12:28:30.304Z,8.50
2019-03-29T12:30:59.709Z,7.92
2019-03-29T12:33:29.074Z,8.97
2019-03-29T12:35:58.456Z,8.83
2019-03-29T12:38:27.831Z,7.20
2019-03-29T12:40:57.217Z,7.83
2019-03-29T12:43:26.600Z,7.87
2019-03-29T12:45:55.985Z,6.40
2019-03-29T12:48:25.353Z,6.43
2019-03-29T12:50:54.747Z,5.80
2019-03-29T12:53:24.098Z,6.07
2019-03-29T12:55:53.474Z,6.20
2019-03-29T12:58:22.862Z,5.63
2019-03-29T13:00:52.255Z,5.08
2019-03-29T13:03:21.640Z,5.00
2019-03-29T13:05:51.171Z,4.60
2019-03-29T13:08:20.568Z,5.50
2019-03-29T13:10:50.193Z,4.97
2019-03-29T13:13:19.549Z,5.53
2019-03-29T13:15:48.992Z,5.57
2019-03-29T13:18:18.431Z,5.47
2019-03-29T13:20:47.810Z,5.40
2019-03-29T13:23:17.179Z,6.40
2019-03-29T13:25:46.559Z,6.43
2019-03-29T13:28:15.956Z,5.70
2019-03-29T13:30:45.394Z,5.53
2019-03-29T13:33:15.785Z,5.17
2019-03-29T13:35:45.250Z,5.17
2019-03-29T13:38:14.623Z,5.77
2019-03-29T13:40:43.999Z,5.23
2019-03-29T13:43:13.373Z,4.73
2019-03-29T13:45:42.744Z,5.10
2019-03-29T13:48:12.117Z,5.33
2019-03-29T13:50:41.493Z,5.70
2019-03-29T13:53:11.146Z,5.70
2019-03-29T13:55:40.862Z,4.90
2019-03-29T13:58:10.236Z,5.83
2019-03-29T14:00:39.963Z,5.27
2019-03-29T14:03:09.323Z,6.40
2019-03-29T14:05:38.701Z,5.83
2019-03-29T14:08:08.369Z,5.75
2019-03-29T14:10:37.744Z,6.23
2019-03-29T14:13:07.121Z,6.12
2019-03-29T14:15:36.504Z,5.50
2019-03-29T14:18:05.948Z,6.30
2019-03-29T14:20:35.569Z,5.63
2019-03-29T14:23:05.013Z,5.43
2019-03-29T14:25:34.467Z,5.92
2019-03-29T14:28:03.842Z,6.62
2019-03-29T14:30:33.502Z,5.97
2019-03-29T14:33:02.940Z,5.40
2019-03-29T14:35:32.316Z,5.90
2019-03-29T14:38:01.714Z,6.43
2019-03-29T14:40:31.059Z,6.53
2019-03-29T14:43:00.461Z,5.25
2019-03-29T14:45:30.111Z,4.28
2019-03-29T14:47:59.823Z,5.00
2019-03-29T14:50:29.276Z,6.67
2019-03-29T14:52:58.655Z,6.00
2019-03-29T14:55:28.028Z,6.87
2019-03-29T14:57:57.405Z,7.60
2019-03-29T15:00:42.350Z,7.77
2019-03-29T15:03:12.242Z,6.50
2019-03-29T15:05:41.609Z,6.87
2019-03-29T15:08:10.989Z,5.60
2019-03-29T15:10:40.372Z,6.07
2019-03-29T15:13:09.817Z,6.20
2019-03-29T15:15:40.016Z,6.00
2019-03-29T15:18:09.467Z,5.77
2019-03-29T15:20:52.129Z,5.53
2019-03-29T15:23:10.032Z,5.63
2019-03-29T15:25:40.694Z,5.90
2019-03-29T15:28:10.270Z,5.78
2019-03-29T15:30:39.638Z,6.77
2019-03-29T15:33:09.016Z,6.00
2019-03-29T15:35:38.623Z,6.12
2019-03-29T15:38:08.005Z,5.75
2019-03-29T15:40:37.385Z,5.33
2019-03-29T15:43:06.760Z,5.73
2019-03-29T15:45:36.375Z,5.70
2019-03-29T15:48:05.920Z,5.40
2019-03-29T15:50:35.295Z,6.63
2019-03-29T15:53:04.752Z,5.58
2019-03-29T15:55:34.128Z,6.12
2019-03-29T15:58:04.642Z,6.70
2019-03-29T16:00:34.722Z,6.53
2019-03-29T16:03:04.165Z,6.67
2019-03-29T16:05:33.529Z,5.87
2019-03-29T16:08:02.916Z,5.80
2019-03-29T16:10:32.286Z,5.67
2019-03-29T16:13:01.664Z,5.80
2019-03-29T16:15:36.507Z,5.92
2019-03-29T16:18:02.381Z,4.90
2019-03-29T16:20:31.999Z,5.60
2019-03-29T16:23:01.381Z,5.63
2019-03-29T16:25:30.768Z,6.60
2019-03-29T16:28:00.146Z,5.77
2019-03-29T16:30:29.755Z,5.17
2019-03-29T16:32:59.143Z,5.50
2019-03-29T16:35:28.641Z,5.23
2019-03-29T16:37:58.031Z,5.20
2019-03-29T16:40:30.700Z,5.07
2019-03-29T16:42:58.504Z,5.00
2019-03-29T16:45:27.878Z,4.85
2019-03-29T16:47:57.271Z,5.33
2019-03-29T16:50:26.636Z,5.00
2019-03-29T16:52:56.023Z,5.10
2019-03-29T16:55:25.393Z,5.03
2019-03-29T16:57:55.028Z,4.50
2019-03-29T17:00:24.415Z,4.62
2019-03-29T17:02:54.039Z,5.20
2019-03-29T17:05:23.410Z,4.87
2019-03-29T17:07:53.230Z,5.23
2019-03-29T17:10:22.682Z,5.17
2019-03-29T17:12:52.443Z,5.17
2019-03-29T17:15:21.925Z,5.70
2019-03-29T17:17:51.577Z,5.30
2019-03-29T17:20:20.958Z,5.53
2019-03-29T17:22:50.399Z,5.13
2019-03-29T17:25:19.795Z,5.47
2019-03-29T17:27:51.989Z,5.85
2019-03-29T17:30:40.691Z,5.30
2019-03-29T17:33:10.064Z,4.83
2019-03-29T17:35:39.433Z,5.23
2019-03-29T17:38:08.808Z,5.20
2019-03-29T17:40:38.189Z,5.47
2019-03-29T17:43:07.628Z,5.00
2019-03-29T17:45:37.017Z,5.93
2019-03-29T17:48:06.929Z,5.67
2019-03-29T17:50:36.312Z,5.80
2019-03-29T17:53:06.815Z,6.30
2019-03-29T17:55:36.197Z,4.87
2019-03-29T17:58:05.630Z,5.27
2019-03-29T18:00:35.011Z,5.70
2019-03-29T18:03:04.385Z,5.33
2019-03-29T18:05:33.763Z,5.63
2019-03-29T18:08:03.213Z,5.53
2019-03-29T18:10:32.585Z,5.53
2019-03-29T18:13:01.961Z,5.63
2019-03-29T18:15:31.344Z,4.73
2019-03-29T18:18:00.717Z,4.70
2019-03-29T18:20:30.273Z,4.80
2019-03-29T18:22:59.883Z,5.13
2019-03-29T18:25:29.591Z,4.90
2019-03-29T18:27:58.958Z,3.77
2019-03-29T18:30:40.430Z,4.10
2019-03-29T18:33:09.949Z,4.27
2019-03-29T18:35:39.673Z,4.17
2019-03-29T18:38:09.045Z,4.43
2019-03-29T18:40:38.500Z,4.30
2019-03-29T18:43:07.878Z,4.43
2019-03-29T18:45:37.339Z,4.63
2019-03-29T18:48:06.799Z,5.12
2019-03-29T18:50:36.183Z,4.83
2019-03-29T18:53:05.751Z,5.03
2019-03-29T18:55:35.143Z,6.43
2019-03-29T18:58:06.040Z,5.92
2019-03-29T19:00:36.220Z,5.80
2019-03-29T19:03:05.663Z,5.70
2019-03-29T19:05:35.540Z,7.53
2019-03-29T19:08:04.912Z,7.83
2019-03-29T19:10:34.367Z,7.40
2019-03-29T19:13:03.807Z,8.13
2019-03-29T19:15:33.507Z,7.03
2019-03-29T19:18:02.894Z,14.30
2019-03-29T19:20:51.862Z,38.40
2019-03-29T19:23:21.236Z,17.83
2019-03-29T19:25:50.730Z,12.03
2019-03-29T19:28:20.454Z,8.98
2019-03-29T19:30:50.776Z,6.17
2019-03-29T19:33:20.738Z,5.20
2019-03-29T19:35:51.128Z,5.75
2019-03-29T19:38:21.225Z,5.47
2019-03-29T19:40:50.599Z,5.43
2019-03-29T19:43:20.292Z,5.47
2019-03-29T19:45:49.643Z,4.80
2019-03-29T19:48:19.021Z,5.33
2019-03-29T19:50:48.395Z,5.50
2019-03-29T19:53:17.808Z,6.50
2019-03-29T19:55:47.216Z,7.30
2019-03-29T19:58:16.607Z,6.70
2019-03-29T20:00:46.071Z,7.23
2019-03-29T20:03:15.560Z,7.90
2019-03-29T20:05:44.915Z,6.63
2019-03-29T20:08:14.361Z,7.00
2019-03-29T20:10:44.008Z,7.07
2019-03-29T20:13:13.386Z,6.00
2019-03-29T20:15:42.765Z,5.70
2019-03-29T20:18:12.146Z,5.17
2019-03-29T20:20:41.511Z,5.10
2019-03-29T20:23:10.916Z,5.23
2019-03-29T20:25:40.286Z,5.27
2019-03-29T20:28:09.664Z,6.87
2019-03-29T20:30:39.273Z,8.77
2019-03-29T20:33:08.659Z,6.83
2019-03-29T20:35:38.023Z,5.10
2019-03-29T20:38:07.406Z,4.67
2019-03-29T20:40:36.774Z,5.00
2019-03-29T20:43:06.454Z,4.60
2019-03-29T20:45:36.043Z,4.27
2019-03-29T20:48:05.850Z,5.37
2019-03-29T20:50:35.218Z,4.70
2019-03-29T20:53:04.608Z,4.87
2019-03-29T20:55:34.226Z,4.20
2019-03-29T20:58:03.674Z,4.23
2019-03-29T21:00:33.044Z,4.20
2019-03-29T21:03:02.477Z,4.35
2019-03-29T21:05:31.915Z,4.93
2019-03-29T21:08:01.294Z,4.63
2019-03-29T21:10:30.666Z,4.40
2019-03-29T21:13:00.072Z,4.30
2019-03-29T21:15:29.473Z,4.80
2019-03-29T21:17:58.864Z,4.73
2019-03-29T21:20:28.317Z,5.00
2019-03-29T21:22:57.985Z,4.60
2019-03-29T21:25:28.377Z,5.00
2019-03-29T21:27:58.399Z,4.35
2019-03-29T21:30:28.472Z,4.80
2019-03-29T21:32:58.531Z,4.35
2019-03-29T21:35:27.894Z,4.50
2019-03-29T21:37:57.570Z,5.00
2019-03-29T21:40:27.182Z,4.40
2019-03-29T21:42:57.294Z,5.37
2019-03-29T21:45:29.114Z,5.10
2019-03-29T21:48:08.860Z,5.27
2019-03-29T21:50:29.226Z,5.77
2019-03-29T21:52:58.600Z,5.20
2019-03-29T21:55:27.973Z,5.27
2019-03-29T21:57:57.344Z,5.63
2019-03-29T22:00:26.719Z,5.33
2019-03-29T22:02:56.091Z,4.93
2019-03-29T22:05:25.482Z,5.47
2019-03-29T22:07:55.105Z,4.90
2019-03-29T22:10:24.486Z,4.67
2019-03-29T22:12:54.109Z,5.00
2019-03-29T22:15:23.496Z,5.42
2019-03-29T22:17:52.859Z,4.77
2019-03-29T22:20:22.252Z,5.03
2019-03-29T22:22:51.625Z,5.13
2019-03-29T22:25:20.997Z,5.40
2019-03-29T22:27:50.438Z,5.17
2019-03-29T22:30:20.023Z,5.50
2019-03-29T22:32:49.393Z,5.60
2019-03-29T22:35:18.766Z,5.40
2019-03-29T22:37:48.137Z,4.90
2019-03-29T22:40:17.512Z,5.20
2019-03-29T22:42:47.273Z,5.10
2019-03-29T22:45:18.683Z,4.73
2019-03-29T22:47:48.285Z,5.13
2019-03-29T22:50:18.173Z,5.70
2019-03-29T22:52:47.807Z,5.10
2019-03-29T22:55:17.180Z,5.40
2019-03-29T22:57:46.542Z,5.27
2019-03-29T23:00:44.394Z,5.50
2019-03-29T23:03:13.825Z,5.80
2019-03-29T23:05:43.210Z,5.30
2019-03-29T23:08:12.575Z,5.20
2019-03-29T23:10:41.946Z,5.57
2019-03-29T23:13:11.318Z,5.60
2019-03-29T23:15:40.693Z,5.83
2019-03-29T23:18:10.062Z,5.67
2019-03-29T23:20:39.433Z,5.90
2019-03-29T23:23:08.795Z,5.93
2019-03-29T23:25:38.251Z,5.97
2019-03-29T23:28:07.622Z,6.00
2019-03-29T23:30:37.006Z,5.50
2019-03-29T23:33:06.364Z,5.97
2019-03-29T23:35:35.740Z,6.27
2019-03-29T23:38:05.115Z,6.93
2019-03-29T23:40:34.493Z,6.50
2019-03-29T23:43:03.854Z,6.13
2019-03-29T23:45:33.232Z,6.30
2019-03-29T23:48:02.601Z,6.17
2019-03-29T23:50:32.316Z,6.97
2019-03-29T23:53:01.686Z,6.17
2019-03-29T23:55:31.324Z,5.67
2019-03-29T23:58:00.687Z,6.10
